Time;durP1;ratioP1;P1;durP2;ratioP2;P2;SDS_P1;SDS_P2;PMS_P1;PMS_P2;Temp;Humidity;BMP_temperature;BMP_pressure;BME280_temperature;BME280_humidity;BME280_pressure;Samples;Min_cycle;Max_cycle;Signal;HPM_P1;HPM_P2
2021/07/10 00:02:09;;;;;;;9.73;8.57;;;589.00;2432.00;;;;;;5041927;28;20033;-64
2021/07/10 00:04:35;;;;;;;14.65;8.93;;;589.00;2432.00;;;;;;5041546;28;20079;-61
2021/07/10 00:07:04;;;;;;;11.10;8.80;;;589.00;2432.00;;;;;;5046016;28;20526;-61
2021/07/10 00:09:30;;;;;;;12.60;8.48;;;589.00;2432.00;;;;;;5045508;28;20036;-61
2021/07/10 00:11:56;;;;;;;12.65;8.43;;;589.00;2432.00;;;;;;5042686;28;20067;-61
2021/07/10 00:14:22;;;;;;;10.35;8.30;;;589.00;2432.00;;;;;;5045456;28;20029;-61
2021/07/10 00:16:48;;;;;;;8.80;7.15;;;588.90;2432.00;;;;;;5048027;28;20053;-62
2021/07/10 00:19:14;;;;;;;8.57;7.15;;;588.90;2432.00;;;;;;5046188;28;20072;-60
2021/07/10 00:21:40;;;;;;;8.48;7.32;;;588.90;2432.00;;;;;;5039015;28;20025;-61
2021/07/10 00:24:06;;;;;;;9.07;6.80;;;588.90;2432.00;;;;;;5041076;28;20030;-61
2021/07/10 00:26:33;;;;;;;9.55;6.53;;;588.80;2432.00;;;;;;5041694;28;20021;-61
2021/07/10 00:29:02;;;;;;;9.30;5.97;;;588.80;2432.00;;;;;;5041047;28;20508;-61
2021/07/10 00:31:27;;;;;;;8.98;5.55;;;588.80;2432.00;;;;;;5040632;28;20032;-64
2021/07/10 00:33:53;;;;;;;12.63;5.38;;;588.80;2432.00;;;;;;5041501;28;20021;-65
2021/07/10 00:36:19;;;;;;;5.68;4.20;;;564.10;2406.40;;;;;;5041276;28;20036;-62
2021/07/10 00:38:44;;;;;;;6.60;4.13;;;564.10;2406.40;;;;;;5040895;28;20013;-62
2021/07/10 00:41:10;;;;;;;5.43;3.70;;;564.10;2380.80;;;;;;5040901;28;20028;-62
2021/07/10 00:43:36;;;;;;;4.90;3.30;;;564.10;2355.20;;;;;;5041503;28;20509;-63
2021/07/10 00:46:03;;;;;;;5.75;3.42;;;564.00;2355.20;;;;;;5040645;28;20027;-64
2021/07/10 00:48:29;;;;;;;6.13;3.00;;;564.00;2355.20;;;;;;5040533;28;20037;-61
2021/07/10 00:50:55;;;;;;;5.15;2.90;;;564.00;2329.60;;;;;;5041259;28;20454;-65
2021/07/10 00:53:21;;;;;;;5.03;3.10;;;564.00;2355.20;;;;;;5037155;28;20025;-66
2021/07/10 00:55:46;;;;;;;4.05;2.60;;;564.00;2329.60;;;;;;5040641;28;20486;-66
2021/07/10 00:58:13;;;;;;;4.28;2.30;;;564.00;2355.20;;;;;;5042053;28;20446;-66
2021/07/10 01:00:40;;;;;;;6.70;2.50;;;563.90;2329.60;;;;;;5045747;28;20024;-66
2021/07/10 01:03:07;;;;;;;2.90;2.20;;;563.90;2304.00;;;;;;5040255;28;20029;-66
2021/07/10 01:05:35;;;;;;;4.65;2.13;;;563.90;2304.00;;;;;;5040859;28;20025;-62
2021/07/10 01:08:01;;;;;;;4.22;2.10;;;563.80;2304.00;;;;;;5038636;28;20064;-67
2021/07/10 01:10:26;;;;;;;3.72;1.83;;;563.70;2278.40;;;;;;5040009;28;20064;-67
2021/07/10 01:12:54;;;;;;;2.28;1.83;;;563.70;2304.00;;;;;;5040560;28;20028;-67
2021/07/10 01:15:22;;;;;;;3.08;1.90;;;563.70;2304.00;;;;;;5039976;28;20026;-67
2021/07/10 01:17:49;;;;;;;2.58;1.52;;;563.50;2278.40;;;;;;5039632;28;20139;-62
2021/07/10 01:20:18;;;;;;;3.33;1.50;;;563.60;2278.40;;;;;;5040834;28;20025;-61
2021/07/10 01:22:45;;;;;;;3.63;1.70;;;563.60;2278.40;;;;;;5038470;28;20021;-61
2021/07/10 01:25:13;;;;;;;4.45;1.70;;;563.50;2278.40;;;;;;5040635;28;20028;-61
2021/07/10 01:27:39;;;;;;;4.93;1.83;;;563.60;2278.40;;;;;;5038556;28;20092;-65
2021/07/10 01:30:08;;;;;;;2.83;1.55;;;563.60;2252.80;;;;;;5041438;28;20025;-61
2021/07/10 01:32:35;;;;;;;3.03;1.30;;;563.50;2252.80;;;;;;5044282;28;20475;-62
2021/07/10 01:35:01;;;;;;;2.85;1.30;;;563.50;2278.40;;;;;;5041040;28;20030;-61
2021/07/10 01:37:27;;;;;;;5.50;1.48;;;563.50;2252.80;;;;;;5042506;28;20036;-64
2021/07/10 01:39:52;;;;;;;4.00;1.52;;;563.40;2252.80;;;;;;5043965;28;20052;-61
2021/07/10 01:42:19;;;;;;;3.00;1.40;;;563.40;2278.40;;;;;;5042321;28;20100;-60
2021/07/10 01:44:46;;;;;;;2.83;1.48;;;563.40;2278.40;;;;;;5042027;28;20033;-61
2021/07/10 01:47:11;;;;;;;2.45;1.25;;;563.30;2278.40;;;;;;5034807;28;20041;-61
2021/07/10 01:49:37;;;;;;;4.25;1.40;;;563.30;2252.80;;;;;;5034608;28;20514;-61
2021/07/10 01:52:03;;;;;;;3.15;1.27;;;563.30;2278.40;;;;;;5033360;28;20128;-61
2021/07/10 01:54:29;;;;;;;5.10;1.30;;;563.30;2278.40;;;;;;5034462;28;20406;-61
2021/07/10 01:56:55;;;;;;;3.28;1.40;;;563.30;2278.40;;;;;;5034386;28;20133;-61
2021/07/10 01:59:21;;;;;;;15.70;2.42;;;538.50;2252.80;;;;;;5034369;28;20025;-62
2021/07/10 02:01:47;;;;;;;3.83;1.10;;;538.50;2278.40;;;;;;5034729;28;20029;-63
2021/07/10 02:04:15;;;;;;;2.22;1.20;;;563.20;2278.40;;;;;;5034368;28;20136;-61
2021/07/10 02:06:43;;;;;;;2.72;1.60;;;538.50;2278.40;;;;;;5034000;28;20033;-61
2021/07/10 02:09:09;;;;;;;2.58;1.40;;;538.50;2252.80;;;;;;5034502;28;20027;-62
2021/07/10 02:11:35;;;;;;;2.30;1.13;;;538.50;2278.40;;;;;;5034125;28;20032;-65
2021/07/10 02:14:01;;;;;;;3.85;1.35;;;538.40;2278.40;;;;;;5034219;28;20112;-62
2021/07/10 02:16:27;;;;;;;3.15;1.23;;;538.40;2278.40;;;;;;5034273;28;20366;-61
2021/07/10 02:18:53;;;;;;;3.83;1.40;;;538.40;2278.40;;;;;;5034233;28;20025;-60
2021/07/10 02:21:19;;;;;;;3.22;1.30;;;538.40;2278.40;;;;;;5034163;28;20029;-61
2021/07/10 02:23:44;;;;;;;2.58;1.30;;;538.40;2304.00;;;;;;5033909;28;20541;-61
2021/07/10 02:26:10;;;;;;;2.28;1.20;;;538.40;2304.00;;;;;;5034115;28;20039;-61
2021/07/10 02:28:35;;;;;;;2.83;1.23;;;538.30;2304.00;;;;;;5033627;28;20501;-64
2021/07/10 02:31:01;;;;;;;3.13;1.30;;;538.30;2278.40;;;;;;5033931;28;20052;-62
2021/07/10 02:33:27;;;;;;;3.13;1.30;;;538.30;2304.00;;;;;;5033923;28;20104;-65
2021/07/10 02:35:53;;;;;;;2.42;1.48;;;538.20;2304.00;;;;;;5033863;28;20017;-61
2021/07/10 02:38:18;;;;;;;3.63;1.50;;;538.20;2304.00;;;;;;5033391;28;20025;-63
2021/07/10 02:40:44;;;;;;;3.40;1.50;;;538.20;2278.40;;;;;;5033786;28;20482;-64
2021/07/10 02:43:10;;;;;;;2.33;1.27;;;538.10;2278.40;;;;;;5033628;28;20029;-63
2021/07/10 02:45:35;;;;;;;1.92;1.30;;;538.10;2278.40;;;;;;5033939;28;20550;-62
2021/07/10 02:48:02;;;;;;;4.20;1.48;;;538.00;2278.40;;;;;;5033619;28;20041;-61
2021/07/10 02:50:27;;;;;;;2.03;1.20;;;538.00;2278.40;;;;;;5033971;28;20482;-61
2021/07/10 02:52:54;;;;;;;3.58;1.25;;;538.00;2252.80;;;;;;5033602;28;20021;-62
2021/07/10 02:55:24;;;;;;;3.95;1.23;;;538.00;2252.80;;;;;;5033517;28;20104;-61
2021/07/10 02:57:50;;;;;;;2.33;1.13;;;537.90;2252.80;;;;;;5033488;28;20056;-60
2021/07/10 03:00:18;;;;;;;4.22;1.23;;;537.90;2252.80;;;;;;5033816;28;20049;-61
2021/07/10 03:02:45;;;;;;;2.20;1.27;;;538.00;2252.80;;;;;;5033477;28;20064;-61
2021/07/10 03:05:11;;;;;;;1.55;1.25;;;538.00;2252.80;;;;;;5033556;28;20021;-61
2021/07/10 03:07:38;;;;;;;4.53;1.33;;;538.00;2227.20;;;;;;5033698;28;20045;-61
2021/07/10 03:10:06;;;;;;;2.60;1.17;;;538.00;2252.80;;;;;;5033619;28;20099;-62
2021/07/10 03:12:32;;;;;;;3.30;1.40;;;538.00;2252.80;;;;;;5033376;28;20049;-61
2021/07/10 03:14:58;;;;;;;5.82;1.38;;;537.90;2252.80;;;;;;5033525;28;20111;-60
2021/07/10 03:17:23;;;;;;;4.03;1.33;;;537.90;2252.80;;;;;;5033733;28;20032;-61
2021/07/10 03:19:49;;;;;;;3.08;1.40;;;537.90;2252.80;;;;;;5033679;28;20544;-61
2021/07/10 03:22:15;;;;;;;4.35;1.50;;;537.90;2278.40;;;;;;5033599;28;20040;-61
2021/07/10 03:24:40;;;;;;;3.00;1.27;;;537.90;2252.80;;;;;;5033441;28;20025;-62
2021/07/10 03:27:08;;;;;;;2.35;1.30;;;537.90;2252.80;;;;;;5033160;28;20042;-61
2021/07/10 03:29:34;;;;;;;1.95;1.20;;;537.90;2252.80;;;;;;5033419;28;20036;-61
2021/07/10 03:31:59;;;;;;;2.15;1.23;;;537.90;2252.80;;;;;;5033477;28;20101;-61
2021/07/10 03:34:25;;;;;;;4.80;1.17;;;537.90;2227.20;;;;;;5033374;28;20386;-61
2021/07/10 03:36:51;;;;;;;2.88;1.02;;;538.00;2227.20;;;;;;5033559;28;20072;-61
2021/07/10 03:39:17;;;;;;;3.00;1.20;;;538.00;2201.60;;;;;;5033734;28;20368;-61
2021/07/10 03:41:42;;;;;;;2.72;1.15;;;538.10;2201.60;;;;;;5037023;28;20117;-61
2021/07/10 03:44:08;;;;;;;1.60;0.90;;;538.20;2201.60;;;;;;5037057;28;20022;-61
2021/07/10 03:46:34;;;;;;;5.45;1.38;;;538.20;2201.60;;;;;;5037200;28;20030;-62
2021/07/10 03:49:00;;;;;;;2.22;1.00;;;538.20;2201.60;;;;;;5036743;28;20041;-61
2021/07/10 03:51:27;;;;;;;5.72;0.95;;;538.30;2176.00;;;;;;5037039;28;20029;-62
2021/07/10 03:53:53;;;;;;;2.50;1.10;;;538.30;2176.00;;;;;;5037088;28;20104;-62
2021/07/10 03:56:19;;;;;;;2.08;1.10;;;538.40;2176.00;;;;;;5036633;28;20018;-61
2021/07/10 03:58:46;;;;;;;2.33;0.90;;;538.40;2176.00;;;;;;5036897;28;20049;-60
2021/07/10 04:01:12;;;;;;;2.20;0.80;;;538.40;2176.00;;;;;;5036777;28;20030;-61
2021/07/10 04:03:38;;;;;;;2.42;0.82;;;538.30;2176.00;;;;;;5036888;28;20458;-61
2021/07/10 04:06:03;;;;;;;3.40;1.00;;;538.40;2150.40;;;;;;5036827;28;20025;-61
2021/07/10 04:08:29;;;;;;;1.85;0.80;;;538.30;2176.00;;;;;;5036523;28;20382;-61
2021/07/10 04:10:55;;;;;;;2.70;0.80;;;538.40;2176.00;;;;;;5036669;28;20097;-61
2021/07/10 04:13:21;;;;;;;4.07;0.80;;;538.40;2124.80;;;;;;5036646;28;20029;-61
2021/07/10 04:15:46;;;;;;;1.58;0.80;;;538.40;2150.40;;;;;;5036719;28;20029;-63
2021/07/10 04:18:12;;;;;;;2.25;0.80;;;538.40;2150.40;;;;;;5036518;28;20487;-64
2021/07/10 04:20:38;;;;;;;2.50;0.82;;;538.40;2124.80;;;;;;5036311;28;20060;-61
2021/07/10 04:23:05;;;;;;;5.88;1.00;;;538.40;2124.80;;;;;;5036586;28;20033;-61
2021/07/10 04:25:32;;;;;;;1.88;0.85;;;538.40;2099.20;;;;;;5036281;28;20113;-62
2021/07/10 04:27:58;;;;;;;3.70;0.93;;;538.40;2099.20;;;;;;5036086;28;20471;-62
2021/07/10 04:30:23;;;;;;;1.83;1.00;;;538.40;2124.80;;;;;;5036568;28;20028;-62
2021/07/10 04:32:50;;;;;;;2.42;0.90;;;538.50;2099.20;;;;;;5036175;28;20376;-63
2021/07/10 04:35:17;;;;;;;2.75;0.80;;;538.40;2099.20;;;;;;5036193;28;20029;-62
2021/07/10 04:37:43;;;;;;;5.07;0.80;;;538.50;2099.20;;;;;;5036248;28;20029;-63
2021/07/10 04:40:10;;;;;;;3.92;0.88;;;538.50;2099.20;;;;;;5036046;28;20029;-63
2021/07/10 04:42:36;;;;;;;1.65;0.80;;;563.20;2099.20;;;;;;5036104;28;20375;-61
2021/07/10 04:45:03;;;;;;;1.30;0.77;;;563.20;2124.80;;;;;;5035996;28;20026;-65
2021/07/10 04:47:28;;;;;;;4.72;1.23;;;563.30;2099.20;;;;;;5035940;28;20045;-64
2021/07/10 04:49:54;;;;;;;2.63;0.90;;;563.30;2099.20;;;;;;5035793;28;20017;-64
2021/07/10 04:52:20;;;;;;;1.70;0.95;;;563.50;2099.20;;;;;;5035318;28;20376;-64
2021/07/10 04:54:46;;;;;;;2.47;0.70;;;563.50;2099.20;;;;;;5035708;28;20025;-61
2021/07/10 04:57:11;;;;;;;2.60;0.80;;;563.60;2073.60;;;;;;5035396;28;20111;-61
2021/07/10 04:59:37;;;;;;;1.50;0.93;;;563.60;2073.60;;;;;;5035284;28;20025;-64
2021/07/10 05:02:03;;;;;;;1.58;0.90;;;563.70;2073.60;;;;;;5035827;28;20435;-61
2021/07/10 05:04:29;;;;;;;2.58;0.82;;;563.70;2048.00;;;;;;5034396;28;20033;-63
2021/07/10 05:06:54;;;;;;;2.38;0.80;;;563.90;2048.00;;;;;;5035712;28;20510;-64
2021/07/10 05:09:20;;;;;;;4.60;0.90;;;563.90;2048.00;;;;;;5035482;28;20047;-61
2021/07/10 05:11:47;;;;;;;3.33;0.85;;;563.90;2048.00;;;;;;5035472;28;20467;-64
2021/07/10 05:14:14;;;;;;;2.00;0.80;;;563.90;2073.60;;;;;;5035182;28;20025;-64
2021/07/10 05:16:40;;;;;;;1.63;0.82;;;564.00;2048.00;;;;;;5035459;28;20044;-61
2021/07/10 05:19:06;;;;;;;2.80;0.88;;;564.00;2048.00;;;;;;5035765;28;20356;-65
2021/07/10 05:21:33;;;;;;;2.20;0.90;;;564.00;2048.00;;;;;;5033937;28;20037;-61
2021/07/10 05:23:58;;;;;;;5.30;1.20;;;564.10;2022.40;;;;;;5034919;28;20048;-61
2021/07/10 05:26:24;;;;;;;3.28;0.80;;;564.10;1996.80;;;;;;5035079;28;20475;-61
2021/07/10 05:28:50;;;;;;;4.13;0.90;;;588.80;1996.80;;;;;;5034928;28;20033;-61
2021/07/10 05:31:16;;;;;;;2.85;0.70;;;564.10;1996.80;;;;;;5034988;28;20426;-62
2021/07/10 05:33:43;;;;;;;3.70;0.98;;;588.80;1996.80;;;;;;5035075;28;20100;-61
2021/07/10 05:36:09;;;;;;;3.60;1.10;;;588.80;1996.80;;;;;;5035086;28;20030;-61
2021/07/10 05:38:36;;;;;;;1.60;0.70;;;588.80;1971.20;;;;;;5035160;28;20033;-61
2021/07/10 05:41:02;;;;;;;2.30;0.80;;;588.80;1971.20;;;;;;5033261;28;20025;-62
2021/07/10 05:43:28;;;;;;;2.17;0.70;;;588.90;1971.20;;;;;;5034593;28;20033;-61
2021/07/10 05:45:54;;;;;;;2.70;0.90;;;589.00;1971.20;;;;;;5034751;28;20071;-60
2021/07/10 05:48:20;;;;;;;2.13;0.70;;;589.10;1971.20;;;;;;5034936;28;20353;-61
2021/07/10 05:50:47;;;;;;;1.40;0.60;;;589.30;1945.60;;;;;;5034887;28;20143;-65
2021/07/10 05:53:13;;;;;;;1.13;0.60;;;589.50;1945.60;;;;;;5034655;28;20057;-61
2021/07/10 05:55:39;;;;;;;4.43;0.65;;;589.60;1920.00;;;;;;5034269;28;20017;-61
2021/07/10 05:58:05;;;;;;;0.82;0.70;;;589.60;1920.00;;;;;;5034156;28;20136;-61
2021/07/10 06:00:32;;;;;;;2.95;0.73;;;589.70;1920.00;;;;;;5034624;28;20041;-60
2021/07/10 06:02:59;;;;;;;1.58;0.70;;;589.70;1868.80;;;;;;5033842;28;20441;-62
2021/07/10 06:05:28;;;;;;;2.45;0.80;;;589.70;1894.40;;;;;;5034438;28;20018;-61
2021/07/10 06:07:54;;;;;;;1.52;0.82;;;614.50;1894.40;;;;;;5034615;28;20039;-61
2021/07/10 06:10:21;;;;;;;1.42;0.63;;;614.60;1894.40;;;;;;5034355;28;20101;-61
2021/07/10 06:12:47;;;;;;;2.60;0.60;;;614.60;1868.80;;;;;;5034461;28;20087;-61
2021/07/10 06:15:13;;;;;;;1.92;0.70;;;614.70;1868.80;;;;;;5034417;28;20021;-62
2021/07/10 06:17:40;;;;;;;0.93;0.60;;;614.90;1843.20;;;;;;5046167;28;20078;-61
2021/07/10 06:20:08;;;;;;;1.67;0.63;;;615.00;1843.20;;;;;;5054190;28;20037;-61
2021/07/10 06:22:35;;;;;;;1.13;0.60;;;614.90;1792.00;;;;;;5054073;28;20025;-63
2021/07/10 06:25:00;;;;;;;2.70;0.90;;;615.00;1817.60;;;;;;5051140;28;20029;-61
2021/07/10 06:27:26;;;;;;;3.42;0.60;;;615.10;1792.00;;;;;;5043974;28;20863;-65
2021/07/10 06:29:52;;;;;;;1.70;0.70;;;615.20;1792.00;;;;;;5042343;28;20527;-63
2021/07/10 06:32:18;;;;;;;1.42;0.80;;;615.10;1792.00;;;;;;5043425;28;20013;-64
2021/07/10 06:34:44;;;;;;;2.03;0.50;;;615.20;1792.00;;;;;;5044489;28;20045;-62
2021/07/10 06:37:09;;;;;;;1.27;0.57;;;615.10;1766.40;;;;;;5044535;28;20482;-64
2021/07/10 06:39:35;;;;;;;1.13;0.50;;;615.30;1766.40;;;;;;5043215;28;20029;-63
2021/07/10 06:42:01;;;;;;;2.97;1.70;;;640.10;1766.40;;;;;;5042659;28;20027;-59
2021/07/10 06:44:27;;;;;;;2.40;1.00;;;640.10;1715.20;;;;;;5044143;28;20061;-60
2021/07/10 06:46:52;;;;;;;2.15;0.60;;;640.20;1740.80;;;;;;5042550;28;20045;-60
2021/07/10 06:49:18;;;;;;;1.58;0.70;;;640.40;1715.20;;;;;;5042965;28;20403;-60
2021/07/10 06:51:44;;;;;;;1.83;0.50;;;640.30;1689.60;;;;;;5044094;28;20028;-61
2021/07/10 06:54:10;;;;;;;0.95;0.50;;;640.30;1715.20;;;;;;5041637;28;20055;-63
2021/07/10 06:56:35;;;;;;;1.50;0.50;;;640.30;1715.20;;;;;;5050280;28;20053;-62
2021/07/10 06:59:01;;;;;;;1.35;0.50;;;640.40;1715.20;;;;;;5053733;28;20031;-61
2021/07/10 07:01:27;;;;;;;0.77;0.47;;;640.60;1689.60;;;;;;5053489;28;20025;-61
2021/07/10 07:03:54;;;;;;;1.95;0.50;;;640.60;1689.60;;;;;;5053469;28;20083;-64
2021/07/10 07:06:20;;;;;;;0.80;0.50;;;640.50;1664.00;;;;;;5053479;28;20076;-62
2021/07/10 07:08:46;;;;;;;6.82;0.70;;;640.60;1664.00;;;;;;5050059;28;20121;-60
2021/07/10 07:11:12;;;;;;;1.55;0.60;;;640.60;1689.60;;;;;;5053708;28;20048;-60
2021/07/10 07:13:38;;;;;;;2.17;0.90;;;640.60;1689.60;;;;;;5035465;28;20041;-60
2021/07/10 07:16:05;;;;;;;2.63;0.55;;;640.50;1664.00;;;;;;5037737;28;20348;-61
2021/07/10 07:18:30;;;;;;;3.30;0.70;;;640.50;1664.00;;;;;;5037451;28;20033;-61
2021/07/10 07:20:56;;;;;;;1.80;0.80;;;640.60;1689.60;;;;;;5037822;28;20034;-60
2021/07/10 07:23:22;;;;;;;3.53;0.70;;;640.80;1638.40;;;;;;5037093;28;20492;-62
2021/07/10 07:25:48;;;;;;;1.48;0.60;;;640.90;1638.40;;;;;;5037368;28;20053;-62
2021/07/10 07:28:13;;;;;;;2.47;0.70;;;665.60;1664.00;;;;;;5037203;28;20044;-61
2021/07/10 07:30:39;;;;;;;2.00;0.63;;;665.60;1664.00;;;;;;5037324;28;20029;-61
2021/07/10 07:33:05;;;;;;;2.28;0.55;;;665.60;1664.00;;;;;;5037382;28;20060;-61
2021/07/10 07:35:32;;;;;;;1.92;0.70;;;665.80;1664.00;;;;;;5045818;28;20033;-60
2021/07/10 07:37:58;;;;;;;2.72;0.60;;;665.80;1638.40;;;;;;5047089;28;20521;-61
2021/07/10 07:40:24;;;;;;;1.48;0.60;;;640.90;1638.40;;;;;;5042058;28;20069;-62
2021/07/10 07:42:50;;;;;;;1.30;0.60;;;665.80;1664.00;;;;;;5038373;28;20029;-69
2021/07/10 07:45:18;;;;;;;0.80;0.50;;;665.90;1638.40;;;;;;5036824;28;20037;-64
2021/07/10 07:47:44;;;;;;;6.88;0.73;;;665.90;1664.00;;;;;;5036747;28;20029;-70
2021/07/10 07:50:12;;;;;;;1.70;0.60;;;665.70;1638.40;;;;;;5039369;28;20025;-65
2021/07/10 07:52:38;;;;;;;1.48;0.50;;;665.90;1638.40;;;;;;5044245;28;20026;-66
2021/07/10 07:55:06;;;;;;;0.57;0.57;;;640.90;1612.80;;;;;;5040941;28;20025;-62
2021/07/10 07:57:32;;;;;;;1.35;0.50;;;665.70;1664.00;;;;;;5043606;28;20033;-63
2021/07/10 07:59:58;;;;;;;1.73;0.50;;;665.70;1664.00;;;;;;5042529;28;20032;-70
2021/07/10 08:02:23;;;;;;;4.55;0.60;;;665.80;1664.00;;;;;;5044517;28;20083;-63
2021/07/10 08:04:50;;;;;;;2.72;0.63;;;665.60;1664.00;;;;;;5045363;28;20037;-67
2021/07/10 08:07:17;;;;;;;1.48;0.73;;;665.90;1664.00;;;;;;5045643;28;20037;-66
2021/07/10 08:09:43;;;;;;;3.65;0.60;;;665.80;1664.00;;;;;;5043998;28;20022;-67
2021/07/10 08:12:10;;;;;;;1.20;0.70;;;665.60;1689.60;;;;;;5045275;28;20025;-69
2021/07/10 08:14:36;;;;;;;1.55;0.70;;;665.90;1740.80;;;;;;5045269;28;20029;-62
2021/07/10 08:17:03;;;;;;;1.50;0.70;;;666.00;1792.00;;;;;;5045786;28;20021;-65
2021/07/10 08:19:29;;;;;;;0.90;0.70;;;666.20;1766.40;;;;;;5046578;28;20025;-63
2021/07/10 08:21:55;;;;;;;1.58;0.80;;;666.40;1715.20;;;;;;5046987;28;20024;-61
2021/07/10 08:24:21;;;;;;;0.80;0.70;;;666.40;1792.00;;;;;;5043587;28;20087;-67
2021/07/10 08:26:46;;;;;;;3.53;0.73;;;691.20;1792.00;;;;;;5043555;28;20060;-68
2021/07/10 08:29:12;;;;;;;2.10;0.68;;;666.40;1766.40;;;;;;5041754;28;20414;-63
2021/07/10 08:31:41;;;;;;;2.25;0.70;;;691.20;1715.20;;;;;;5038028;28;20022;-61
2021/07/10 08:34:07;;;;;;;1.70;0.70;;;691.50;1638.40;;;;;;5041856;28;20159;-61
2021/07/10 08:36:33;;;;;;;2.88;0.80;;;691.80;1664.00;;;;;;5046229;28;20421;-62
2021/07/10 08:38:59;;;;;;;0.90;0.70;;;691.80;1612.80;;;;;;5046442;28;20033;-62
2021/07/10 08:41:25;;;;;;;3.55;0.80;;;692.10;1587.20;;;;;;5039569;28;20025;-61
2021/07/10 08:43:51;;;;;;;3.83;0.93;;;717.00;1612.80;;;;;;5042968;28;20029;-62
2021/07/10 08:46:20;;;;;;;0.70;0.60;;;717.40;1612.80;;;;;;5045468;28;20424;-61
2021/07/10 08:48:46;;;;;;;1.55;0.50;;;717.60;1536.00;;;;;;5042997;28;20033;-64
2021/07/10 08:51:13;;;;;;;3.53;0.88;;;742.40;1510.40;;;;;;5043448;28;20051;-72
2021/07/10 08:53:40;;;;;;;2.20;0.70;;;742.60;1536.00;;;;;;5037537;28;20509;-61
2021/07/10 08:56:07;;;;;;;1.55;0.77;;;742.70;1536.00;;;;;;5045542;28;20043;-62
2021/07/10 08:58:34;;;;;;;1.88;0.50;;;743.00;1536.00;;;;;;5045228;28;20098;-72
2021/07/10 09:01:00;;;;;;;2.63;0.65;;;742.80;1510.40;;;;;;5042225;28;20036;-64
2021/07/10 09:03:26;;;;;;;2.47;0.60;;;743.20;1459.20;;;;;;5036002;28;20067;-62
2021/07/10 09:05:55;;;;;;;3.70;0.60;;;743.20;1459.20;;;;;;5040324;28;20469;-64
2021/07/10 09:08:25;;;;;;;2.15;0.80;;;768.30;1459.20;;;;;;5041051;28;20116;-64
2021/07/10 09:11:00;;;;;;;2.50;0.47;;;768.70;1433.60;;;;;;5039706;28;20049;-68
2021/07/10 09:13:35;;;;;;;1.27;0.60;;;768.50;1382.40;;;;;;5040410;28;20032;-67
2021/07/10 09:16:07;;;;;;;1.65;0.63;;;768.70;1408.00;;;;;;5038630;28;20026;-66
2021/07/10 09:18:39;;;;;;;2.45;0.60;;;768.80;1382.40;;;;;;5035258;28;20026;-68
2021/07/10 09:21:05;;;;;;;2.25;0.60;;;768.80;1331.20;;;;;;5035368;28;20030;-66
2021/07/10 09:23:41;;;;;;;2.13;0.60;;;768.70;1331.20;;;;;;5035042;28;20026;-65
2021/07/10 09:26:18;;;;;;;4.72;2.03;;;768.20;1331.20;;;;;;5035418;28;20065;-65
2021/07/10 09:28:54;;;;;;;1.90;1.10;;;768.50;1331.20;;;;;;5035155;28;20039;-65
2021/07/10 09:31:26;;;;;;;2.75;0.60;;;768.80;1356.80;;;;;;5034093;28;20439;-70
2021/07/10 09:34:16;;;;;;;1.10;0.60;;;768.60;1356.80;;;;;;5035048;28;20044;-73
2021/07/10 09:37:12;;;;;;;2.30;0.90;;;768.70;1331.20;;;;;;5034537;28;20025;-70
2021/07/10 09:39:56;;;;;;;2.15;0.82;;;768.60;1331.20;;;;;;5013262;28;20105;-71
2021/07/10 09:42:30;;;;;;;4.20;1.08;;;768.80;1331.20;;;;;;5014622;28;20034;-66
2021/07/10 09:44:55;;;;;;;5.25;0.80;;;793.80;1331.20;;;;;;5012547;28;20030;-72
2021/07/10 09:47:30;;;;;;;1.02;0.60;;;793.90;1280.00;;;;;;5014915;28;20045;-66
2021/07/10 09:49:58;;;;;;;2.70;0.60;;;794.10;1280.00;;;;;;5013228;28;20470;-77
2021/07/10 09:52:25;;;;;;;2.85;0.60;;;794.40;1254.40;;;;;;5012773;28;20551;-66
2021/07/10 09:54:53;;;;;;;1.80;0.75;;;794.20;1280.00;;;;;;5012929;28;20025;-67
2021/07/10 09:57:29;;;;;;;2.78;0.77;;;794.40;1203.20;;;;;;5012665;28;20061;-71
2021/07/10 09:59:59;;;;;;;1.58;0.60;;;819.30;1228.80;;;;;;5012643;28;20082;-66
2021/07/10 10:02:31;;;;;;;2.20;0.80;;;794.00;1254.40;;;;;;5012745;28;20083;-65
2021/07/10 10:05:11;;;;;;;0.90;0.70;;;819.30;1254.40;;;;;;5012655;28;20537;-66
2021/07/10 10:07:47;;;;;;;5.72;2.40;;;819.60;1203.20;;;;;;5012508;28;20128;-73
2021/07/10 10:10:25;;;;;;;1.70;0.70;;;819.80;1177.60;;;;;;5012852;28;20036;-68
2021/07/10 10:13:07;;;;;;;1.85;0.60;;;819.50;1228.80;;;;;;5012444;28;20533;-68
2021/07/10 10:15:38;;;;;;;1.95;0.60;;;820.00;1228.80;;;;;;5019330;28;20044;-69
2021/07/10 10:18:09;;;;;;;2.55;0.70;;;844.80;1254.40;;;;;;5034291;28;20032;-73
2021/07/10 10:20:36;;;;;;;2.83;0.70;;;845.10;1228.80;;;;;;5032923;28;20056;-72
2021/07/10 10:23:04;;;;;;;1.35;0.70;;;845.10;1203.20;;;;;;5034489;28;20029;-68
2021/07/10 10:25:30;;;;;;;1.40;0.80;;;845.30;1126.40;;;;;;5034008;28;20032;-72
2021/07/10 10:27:57;;;;;;;4.18;0.82;;;845.40;1152.00;;;;;;5034273;28;20030;-68
2021/07/10 10:30:23;;;;;;;1.67;0.80;;;845.60;1100.80;;;;;;5033968;28;20026;-66
2021/07/10 10:32:51;;;;;;;2.05;0.80;;;845.60;1177.60;;;;;;5033984;28;20021;-69
2021/07/10 10:35:18;;;;;;;3.65;1.02;;;870.40;1100.80;;;;;;5033766;28;20029;-66
2021/07/10 10:37:44;;;;;;;2.88;0.80;;;845.70;1075.20;;;;;;5034271;28;20025;-66
2021/07/10 10:40:14;;;;;;;3.95;0.90;;;845.50;1100.80;;;;;;5033855;28;20021;-69
2021/07/10 10:42:43;;;;;;;2.67;0.77;;;845.60;1100.80;;;;;;5033947;28;20421;-72
2021/07/10 10:45:09;;;;;;;1.05;0.70;;;844.80;1177.60;;;;;;5049786;28;20032;-72
2021/07/10 10:47:45;;;;;;;1.08;0.68;;;844.90;1177.60;;;;;;5053596;28;20493;-68
2021/07/10 10:50:17;;;;;;;2.35;1.00;;;845.10;1152.00;;;;;;5053639;28;20037;-69
2021/07/10 10:52:45;;;;;;;4.93;1.08;;;844.90;1152.00;;;;;;5053837;28;20021;-66
2021/07/10 10:55:13;;;;;;;1.58;0.80;;;845.10;1203.20;;;;;;5052551;28;20051;-67
2021/07/10 10:57:39;;;;;;;3.03;0.70;;;844.80;1177.60;;;;;;5053421;28;20045;-67
2021/07/10 11:00:12;;;;;;;2.25;0.90;;;845.10;1152.00;;;;;;5053425;28;20040;-66
2021/07/10 11:02:52;;;;;;;2.63;1.70;;;844.80;1152.00;;;;;;5053855;28;20040;-76
2021/07/10 11:05:35;;;;;;;4.45;1.33;;;844.80;1177.60;;;;;;5053773;28;20023;-71
2021/07/10 11:08:19;;;;;;;2.97;0.88;;;820.10;1152.00;;;;;;5053403;28;20040;-66
2021/07/10 11:10:54;;;;;;;0.95;0.65;;;845.00;1126.40;;;;;;5053357;28;20025;-69
2021/07/10 11:13:28;;;;;;;;;;;845.00;1152.00;;;;;;5052474;28;20116;-68
2021/07/10 11:16:14;;;;;;;1.50;0.77;;;845.10;1152.00;;;;;;5053535;28;19904;-67
2021/07/10 11:18:59;;;;;;;1.92;0.80;;;844.80;1177.60;;;;;;5053337;28;20033;-66
2021/07/10 11:21:31;;;;;;;1.58;0.98;;;845.10;1152.00;;;;;;5053345;28;20020;-66
2021/07/10 11:24:15;;;;;;;2.53;0.90;;;844.80;1152.00;;;;;;5053294;28;20029;-66
2021/07/10 11:26:53;;;;;;;3.92;1.20;;;845.10;1126.40;;;;;;5052329;28;20051;-66
2021/07/10 11:29:28;;;;;;;6.20;1.10;;;845.40;1126.40;;;;;;5033477;28;20120;-73
2021/07/10 11:32:25;;;;;;;5.70;1.00;;;845.60;1126.40;;;;;;5033278;28;20360;-68
2021/07/10 11:34:59;;;;;;;3.25;0.80;;;870.40;1100.80;;;;;;5033430;28;20036;-66
2021/07/10 11:37:28;;;;;;;3.10;0.75;;;845.70;1100.80;;;;;;5033361;28;20032;-67
2021/07/10 11:39:54;;;;;;;1.60;1.10;;;845.60;1075.20;;;;;;5033383;28;20548;-71
2021/07/10 11:42:32;;;;;;;3.20;1.20;;;845.60;1100.80;;;;;;5033010;28;20033;-67
2021/07/10 11:45:08;;;;;;;4.28;0.88;;;870.60;1100.80;;;;;;5033191;28;20025;-77
2021/07/10 11:47:44;;;;;;;4.20;0.90;;;870.40;1100.80;;;;;;5033173;28;20500;-69
2021/07/10 11:50:19;;;;;;;4.68;1.00;;;870.50;1126.40;;;;;;5033081;28;20044;-65
2021/07/10 11:53:04;;;;;;;5.55;1.20;;;870.60;1075.20;;;;;;5033037;28;20025;-69
2021/07/10 11:55:35;;;;;;;2.58;0.90;;;870.40;1075.20;;;;;;5033388;28;20032;-65
2021/07/10 11:58:07;;;;;;;3.45;1.10;;;845.60;1100.80;;;;;;5039819;28;20132;-71
2021/07/10 12:00:34;;;;;;;1.70;0.90;;;845.60;1126.40;;;;;;5053713;28;20100;-69
2021/07/10 12:03:00;;;;;;;4.18;1.00;;;845.20;1152.00;;;;;;5056795;28;20036;-69
2021/07/10 12:05:26;;;;;;;3.65;0.90;;;845.70;1126.40;;;;;;5056603;28;20523;-75
2021/07/10 12:07:56;;;;;;;4.60;1.25;;;870.40;1126.40;;;;;;5056968;28;20033;-65
2021/07/10 12:10:25;;;;;;;2.58;1.10;;;870.50;1100.80;;;;;;5056697;28;20049;-66
2021/07/10 12:13:01;;;;;;;4.50;0.80;;;870.60;1152.00;;;;;;5051216;28;20052;-66
2021/07/10 12:15:35;;;;;;;3.30;1.00;;;870.60;1100.80;;;;;;5056457;28;20339;-65
2021/07/10 12:18:02;;;;;;;;;;;870.50;1126.40;;;;;;5056744;28;20104;-66
2021/07/10 12:20:39;;;;;;;2.65;0.93;;;845.60;1126.40;;;;;;5056431;28;20004;-68
2021/07/10 12:23:10;;;;;;;2.35;1.10;;;870.40;1126.40;;;;;;5057120;28;20029;-68